Time;durP1;ratioP1;P1;durP2;ratioP2;P2;SDS_P1;SDS_P2;PMS_P1;PMS_P2;Temp;Humidity;BMP_temperature;BMP_pressure;BME280_temperature;BME280_humidity;BME280_pressure;Samples;Min_cycle;Max_cycle;Signal;HPM_P1;HPM_P2
2022/05/19 00:01:06;;;;;;;1999.90;999.90;;;;;;;17.37;68.34;99507.66;8218572;28;20066;-72
2022/05/19 00:05:08;;;;;;;1999.90;999.90;;;;;;;17.30;69.53;99509.63;8225817;28;20722;-72
2022/05/19 00:09:09;;;;;;;1999.90;999.90;;;;;;;17.24;70.05;99507.19;8224497;28;20085;-72
2022/05/19 00:13:11;;;;;;;1999.90;999.90;;;;;;;17.18;70.56;99512.59;8223153;28;20371;-72
2022/05/19 00:17:13;;;;;;;1999.90;999.90;;;;;;;17.11;70.72;99514.53;8222008;28;20060;-72
2022/05/19 00:21:14;;;;;;;1999.90;999.90;;;;;;;17.06;71.14;99508.59;8214671;28;20411;-72
2022/05/19 00:25:16;;;;;;;1999.90;999.90;;;;;;;16.98;71.69;99507.06;8239835;28;20125;-72
2022/05/19 00:29:17;;;;;;;1999.90;999.90;;;;;;;16.89;72.04;99497.72;8232216;28;20952;-72
2022/05/19 00:33:19;;;;;;;1999.90;999.90;;;;;;;16.81;72.13;99508.41;8235039;28;20442;-72
2022/05/19 00:37:20;;;;;;;1999.90;999.90;;;;;;;16.71;72.62;99495.59;8241193;28;20422;-72
2022/05/19 00:41:22;;;;;;;1999.90;999.90;;;;;;;16.66;72.85;99502.69;8235252;28;20301;-72
2022/05/19 00:45:26;;;;;;;1999.90;999.90;;;;;;;16.59;73.43;99499.38;8239823;28;20081;-73
2022/05/19 00:49:37;;;;;;;1999.90;999.90;;;;;;;16.53;73.47;99497.78;8234390;28;20050;-72
2022/05/19 00:53:45;;;;;;;1999.90;999.90;;;;;;;16.46;73.87;99495.34;8242770;28;20121;-72
2022/05/19 00:57:55;;;;;;;1999.90;999.90;;;;;;;16.32;74.63;99493.94;8246953;28;20153;-72
2022/05/19 01:01:57;;;;;;;1999.90;999.90;;;;;;;16.27;74.93;99494.97;8237500;28;20447;-72
2022/05/19 01:06:11;;;;;;;1999.90;999.90;;;;;;;16.21;75.04;99490.75;8233712;28;20066;-72
2022/05/19 01:10:14;;;;;;;1999.90;999.90;;;;;;;16.18;74.90;99493.47;8221190;28;20062;-72
2022/05/19 01:14:15;;;;;;;1999.90;999.90;;;;;;;16.14;75.07;99491.78;8240308;28;20046;-72
2022/05/19 01:18:18;;;;;;;1999.90;999.90;;;;;;;16.10;75.42;99494.53;8212287;28;20149;-72
2022/05/19 01:22:44;;;;;;;1999.90;999.90;;;;;;;16.00;75.88;99491.31;8239629;28;20073;-73
2022/05/19 01:26:49;;;;;;;1999.90;999.90;;;;;;;15.91;76.15;99494.13;8238829;28;20073;-72
2022/05/19 01:30:50;;;;;;;1999.90;999.90;;;;;;;15.80;76.81;99499.66;8226057;28;20050;-72
2022/05/19 01:34:52;;;;;;;1999.90;999.90;;;;;;;15.71;77.39;99498.09;8226738;28;20086;-72
2022/05/19 01:39:04;;;;;;;1999.90;999.90;;;;;;;15.67;77.88;99498.22;8232604;28;20427;-73
2022/05/19 01:43:31;;;;;;;1999.90;999.90;;;;;;;15.59;78.10;99495.75;8237661;28;20137;-72
2022/05/19 01:47:57;;;;;;;1999.90;999.90;;;;;;;15.51;78.54;99494.19;8238057;28;20054;-73
2022/05/19 01:52:10;;;;;;;1999.90;999.90;;;;;;;15.52;78.66;99498.53;8233743;28;20578;-73
2022/05/19 01:56:23;;;;;;;1999.90;999.90;;;;;;;15.53;78.71;99503.72;8247754;28;20069;-73
2022/05/19 02:00:28;;;;;;;1999.90;999.90;;;;;;;15.50;78.90;99501.19;8237958;28;20082;-72
2022/05/19 02:04:42;;;;;;;1999.90;999.90;;;;;;;15.42;79.37;99503.09;8248414;28;20073;-73
2022/05/19 02:08:52;;;;;;;1999.90;999.90;;;;;;;15.37;79.71;99510.19;8235912;28;20054;-73
2022/05/19 02:12:55;;;;;;;1999.90;999.90;;;;;;;15.31;80.28;99507.72;8242403;28;20074;-73
2022/05/19 02:16:59;;;;;;;1999.90;999.90;;;;;;;15.20;80.53;99510.56;8242695;28;20413;-73
2022/05/19 02:21:04;;;;;;;1999.90;999.90;;;;;;;15.13;81.07;99513.34;8243250;28;20051;-73
2022/05/19 02:25:21;;;;;;;1999.90;999.90;;;;;;;15.06;81.17;99507.34;8244812;28;20074;-72
2022/05/19 02:29:26;;;;;;;1999.90;999.90;;;;;;;14.97;81.73;99500.59;8246922;28;20700;-72
2022/05/19 02:33:28;;;;;;;1999.90;999.90;;;;;;;14.94;81.63;99500.66;8243691;28;20039;-73
2022/05/19 02:37:30;;;;;;;1999.90;999.90;;;;;;;14.85;81.90;99507.78;8236539;28;20042;-73
2022/05/19 02:41:32;;;;;;;1999.90;999.90;;;;;;;14.71;81.85;99495.84;8245895;28;20078;-72
2022/05/19 02:45:34;;;;;;;1999.90;999.90;;;;;;;14.64;82.09;99496.88;8245059;28;20038;-72
2022/05/19 02:49:36;;;;;;;;;;;;;;;14.60;82.58;99494.34;8217155;28;20046;-72
2022/05/19 02:53:37;;;;;;;1999.90;999.90;;;;;;;14.49;82.80;99482.34;8231613;28;20264;-72
2022/05/19 02:57:39;;;;;;;1999.90;999.90;;;;;;;14.46;83.21;99482.41;8219509;28;20413;-72
2022/05/19 03:01:41;;;;;;;1999.90;999.90;;;;;;;14.38;83.08;99481.66;8232193;28;20809;-72
2022/05/19 03:05:43;;;;;;;1999.90;999.90;;;;;;;14.33;82.92;99490.44;8238465;28;20078;-72
2022/05/19 03:09:45;;;;;;;1999.90;999.90;;;;;;;14.27;83.82;99504.50;8243116;28;20660;-73
2022/05/19 03:13:46;;;;;;;1999.90;999.90;;;;;;;14.24;84.11;99501.94;8223961;28;20080;-73
2022/05/19 03:17:48;;;;;;;1999.90;999.90;;;;;;;14.21;84.29;99504.63;8239455;28;20145;-72
2022/05/19 03:21:49;;;;;;;1999.90;999.90;;;;;;;14.15;84.20;99510.78;8241196;28;20085;-73
2022/05/19 03:25:53;;;;;;;1999.90;999.90;;;;;;;14.10;85.39;99503.94;8218539;28;20053;-73
2022/05/19 03:29:55;;;;;;;1999.90;999.90;;;;;;;14.10;84.86;99499.56;8243709;28;20074;-73
2022/05/19 03:33:56;;;;;;;1999.90;999.90;;;;;;;14.09;84.71;99510.91;8243571;28;20061;-73
2022/05/19 03:37:58;;;;;;;1999.90;999.90;;;;;;;14.03;85.04;99504.94;8240208;28;20427;-73
2022/05/19 03:41:59;;;;;;;1999.90;999.90;;;;;;;14.00;84.86;99507.56;8239133;28;20073;-73
2022/05/19 03:46:02;;;;;;;1999.90;999.90;;;;;;;13.92;85.35;99510.31;8231899;28;20771;-72
2022/05/19 03:50:04;;;;;;;1999.90;999.90;;;;;;;13.84;85.38;99506.97;8238041;28;20050;-74
2022/05/19 03:54:12;;;;;;;1999.90;999.90;;;;;;;13.82;85.51;99507.00;8237283;28;20065;-74
2022/05/19 03:58:13;;;;;;;1999.90;999.90;;;;;;;13.77;85.93;99510.53;8237128;28;20089;-74
2022/05/19 04:02:15;;;;;;;1999.90;999.90;;;;;;;13.71;86.23;99529.78;8229895;28;20141;-73
2022/05/19 04:06:35;;;;;;;1999.90;999.90;;;;;;;13.64;86.75;99535.09;8239220;28;20057;-74
2022/05/19 04:10:42;;;;;;;1999.90;999.90;;;;;;;13.64;87.01;99542.91;8242137;28;20367;-74
2022/05/19 04:14:43;;;;;;;1999.90;999.90;;;;;;;13.75;86.69;99543.63;8240350;28;20081;-74
2022/05/19 04:18:45;;;;;;;1999.90;999.90;;;;;;;13.83;86.77;99541.78;8239051;28;20137;-73
2022/05/19 04:22:46;;;;;;;1999.90;999.90;;;;;;;13.87;86.71;99535.63;8225543;28;20046;-74
2022/05/19 04:26:49;;;;;;;1999.90;999.90;;;;;;;13.87;86.75;99530.41;8230047;28;20051;-74
2022/05/19 04:30:50;;;;;;;1999.90;999.90;;;;;;;14.00;86.36;99533.66;8235240;28;20058;-75
2022/05/19 04:34:52;;;;;;;1999.90;999.90;;;;;;;14.02;86.17;99534.53;8237550;28;20055;-74
2022/05/19 04:38:53;;;;;;;1999.90;999.90;;;;;;;14.04;85.50;99540.59;8233007;28;20076;-74
2022/05/19 04:42:55;;;;;;;1999.90;999.90;;;;;;;14.06;86.21;99538.81;8215321;28;20039;-74
2022/05/19 04:46:56;;;;;;;1999.90;999.90;;;;;;;14.10;85.84;99548.31;8232439;28;20071;-74
2022/05/19 04:50:58;;;;;;;1999.90;999.90;;;;;;;14.15;86.04;99544.72;8237342;28;20061;-74
2022/05/19 04:55:00;;;;;;;1999.90;999.90;;;;;;;14.26;86.13;99541.94;8219894;28;20126;-74
2022/05/19 04:59:14;;;;;;;1999.90;999.90;;;;;;;14.37;85.49;99554.84;8235380;28;20057;-74
2022/05/19 05:03:17;;;;;;;1999.90;999.90;;;;;;;14.48;84.86;99561.63;8226978;28;20038;-74
2022/05/19 05:07:18;;;;;;;1999.90;999.90;;;;;;;14.64;84.14;99549.16;8235216;28;20034;-74
2022/05/19 05:11:19;;;;;;;1999.90;999.90;;;;;;;14.79;84.12;99554.09;8215667;28;20094;-75
2022/05/19 05:15:22;;;;;;;1999.90;999.90;;;;;;;14.84;84.34;99563.59;8237791;28;20077;-75
2022/05/19 05:19:24;;;;;;;1999.90;999.90;;;;;;;14.94;84.25;99557.31;8236933;28;20138;-74
2022/05/19 05:23:25;;;;;;;1999.90;999.90;;;;;;;15.17;82.99;99567.31;8234119;28;20043;-73
2022/05/19 05:27:27;;;;;;;1999.90;999.90;;;;;;;15.42;83.04;99564.13;8229859;28;20053;-74
2022/05/19 05:31:29;;;;;;;1999.90;999.90;;;;;;;15.83;81.39;99570.28;8224565;28;20062;-74
2022/05/19 05:35:31;;;;;;;1999.90;999.90;;;;;;;16.18;80.13;99565.97;8230067;28;20145;-75
2022/05/19 05:39:32;;;;;;;1999.90;999.90;;;;;;;16.47;78.83;99555.59;8230011;28;20047;-74
2022/05/19 05:43:38;;;;;;;1999.90;999.90;;;;;;;16.73;77.53;99570.69;8228194;28;20301;-74
2022/05/19 05:47:39;;;;;;;1999.90;999.90;;;;;;;17.09;76.28;99575.84;8210017;28;20061;-74
2022/05/19 05:51:46;;;;;;;1999.90;999.90;;;;;;;17.37;75.56;99568.88;8192420;28;20113;-74
2022/05/19 05:55:47;;;;;;;1999.90;999.90;;;;;;;17.69;74.93;99567.97;8236784;28;20070;-74
2022/05/19 05:59:49;;;;;;;1999.90;999.90;;;;;;;18.12;73.44;99571.84;8203325;28;20051;-74
2022/05/19 06:03:50;;;;;;;1999.90;999.90;;;;;;;18.41;72.04;99570.91;8223025;28;20085;-74
2022/05/19 06:07:52;;;;;;;1999.90;999.90;;;;;;;18.55;72.25;99584.47;8192072;28;20428;-74
2022/05/19 06:11:53;;;;;;;1999.90;999.90;;;;;;;18.57;72.63;99587.03;8222592;28;20090;-74
2022/05/19 06:15:55;;;;;;;1999.90;999.90;;;;;;;18.87;72.73;99575.50;8223747;28;20142;-74
2022/05/19 06:19:57;;;;;;;1999.90;999.90;;;;;;;19.23;71.81;99581.22;8224326;28;20109;-74
2022/05/19 06:23:58;;;;;;;1999.90;999.90;;;;;;;19.53;70.11;99586.25;8229708;28;20074;-74
2022/05/19 06:28:00;;;;;;;1999.90;999.90;;;;;;;19.94;67.91;99591.75;8214022;28;20057;-74
2022/05/19 06:32:02;;;;;;;;;;;;;;;20.38;66.43;99596.06;8227657;28;20463;-74
2022/05/19 06:36:05;;;;;;;1999.90;999.90;;;;;;;20.93;64.60;99598.19;8224304;28;19980;-74
2022/05/19 06:40:09;;;;;;;1999.90;999.90;;;;;;;21.39;62.84;99597.91;8229900;28;20089;-74
2022/05/19 06:44:11;;;;;;;1999.90;999.90;;;;;;;21.77;61.30;99600.59;8232815;28;20043;-74
2022/05/19 06:48:13;;;;;;;1999.90;999.90;;;;;;;22.07;59.75;99600.91;8227114;28;20054;-74
2022/05/19 06:52:18;;;;;;;1999.90;999.90;;;;;;;22.45;59.31;99607.03;8238066;28;20078;-74
2022/05/19 06:56:20;;;;;;;1999.90;999.90;;;;;;;22.85;57.73;99608.53;8250879;28;20066;-74
2022/05/19 07:00:22;;;;;;;;;;;;;;;23.17;57.18;99600.72;8230602;28;20854;-75
2022/05/19 07:04:24;;;;;;;1999.90;999.90;;;;;;;23.57;55.90;99599.47;8236553;28;19933;-75
2022/05/19 07:08:26;;;;;;;1999.90;999.90;;;;;;;23.95;55.10;99604.47;8236102;28;20038;-75
2022/05/19 07:12:28;;;;;;;1999.90;999.90;;;;;;;24.33;54.71;99599.66;8224669;28;20057;-75
2022/05/19 07:16:30;;;;;;;1999.90;999.90;;;;;;;24.39;53.24;99604.59;8237913;28;20082;-75
2022/05/19 07:20:44;;;;;;;1999.90;999.90;;;;;;;24.22;53.83;99596.72;8239788;28;20046;-76
2022/05/19 07:24:46;;;;;;;1999.90;999.90;;;;;;;24.04;54.38;99599.47;8236692;28;20057;-75
2022/05/19 07:28:47;;;;;;;;;;;;;;;24.01;53.92;99601.44;8225286;28;20090;-74
2022/05/19 07:32:49;;;;;;;1999.90;999.90;;;;;;;24.43;53.54;99602.66;8223646;28;19931;-74
2022/05/19 07:36:50;;;;;;;1999.90;999.90;;;;;;;24.98;52.62;99603.75;8243479;28;20069;-74
2022/05/19 07:40:54;;;;;;;1999.90;999.90;;;;;;;25.51;50.82;99597.00;8217611;28;20070;-74
2022/05/19 07:44:55;;;;;;;1999.90;999.90;;;;;;;25.70;48.53;99602.03;8226897;28;20038;-75
2022/05/19 07:48:57;;;;;;;1999.90;999.90;;;;;;;25.85;49.14;99594.84;8212839;28;20078;-74
2022/05/19 07:52:59;;;;;;;1999.90;999.90;;;;;;;26.20;49.10;99597.91;8219833;28;20046;-74
2022/05/19 07:57:01;;;;;;;1999.90;999.90;;;;;;;26.43;47.79;99583.13;8212455;28;20503;-74
2022/05/19 08:01:03;;;;;;;1999.90;999.90;;;;;;;26.74;48.29;99582.75;8227162;28;20436;-75
2022/05/19 08:05:04;;;;;;;1999.90;999.90;;;;;;;27.07;47.90;99576.09;8230245;28;20046;-74
2022/05/19 08:17:47;;;;;;;1999.90;999.90;;;;;;;27.33;46.40;99575.13;8227968;28;20069;-74
2022/05/19 08:21:48;;;;;;;1999.90;999.90;;;;;;;26.95;46.08;99567.13;8228120;28;20054;-74
2022/05/19 08:25:50;;;;;;;1999.90;999.90;;;;;;;27.02;47.23;99580.91;8228288;28;20425;-74
2022/05/19 08:29:51;;;;;;;;;;;;;;;27.27;47.74;99586.22;8234177;28;20073;-74
2022/05/19 08:33:54;;;;;;;1999.90;999.90;;;;;;;27.65;46.35;99585.38;8225893;28;19926;-74
2022/05/19 08:37:56;;;;;;;1999.90;999.90;;;;;;;28.00;46.03;99578.31;8208486;28;20049;-74
2022/05/19 08:42:06;;;;;;;1999.90;999.90;;;;;;;28.06;44.15;99579.69;8229094;28;20633;-74
2022/05/19 08:46:23;;;;;;;1999.90;999.90;;;;;;;28.25;44.38;99582.75;8221114;28;20086;-74
2022/05/19 08:50:37;;;;;;;1999.90;999.90;;;;;;;28.29;42.36;99578.00;8233893;28;20126;-74
2022/05/19 08:54:42;;;;;;;1999.90;999.90;;;;;;;28.10;42.83;99580.31;8233051;28;20073;-75
2022/05/19 08:59:38;;;;;;;1999.90;999.90;;;;;;;27.33;44.58;99571.63;8234696;28;20355;-75
2022/05/19 09:03:51;;;;;;;1999.90;999.90;;;;;;;27.23;45.99;99583.88;8124706;28;20054;-75
2022/05/19 09:08:16;;;;;;;1999.90;999.90;;;;;;;27.36;45.10;99572.25;8230114;28;20506;-74
2022/05/19 09:12:20;;;;;;;1999.90;999.90;;;;;;;27.07;46.27;99563.63;8232090;28;20088;-73
2022/05/19 09:16:27;;;;;;;1999.90;999.90;;;;;;;26.69;47.69;99576.88;8207616;28;20054;-74
2022/05/19 09:20:37;;;;;;;1999.90;999.90;;;;;;;26.38;48.67;99563.91;8228035;28;20577;-74
2022/05/19 09:24:39;;;;;;;1999.90;999.90;;;;;;;25.99;48.71;99570.03;8215742;28;20081;-73
2022/05/19 09:28:44;;;;;;;1999.90;999.90;;;;;;;25.77;49.62;99570.56;8235154;28;20149;-74
2022/05/19 09:32:52;;;;;;;1999.90;999.90;;;;;;;25.95;49.17;99568.53;8219339;28;20133;-73
2022/05/19 09:37:08;;;;;;;1999.90;999.90;;;;;;;26.44;49.70;99566.19;8220097;28;20066;-74
2022/05/19 09:41:21;;;;;;;1999.90;999.90;;;;;;;26.97;48.96;99559.03;8223377;28;20050;-73
2022/05/19 09:45:24;;;;;;;1999.90;999.90;;;;;;;26.99;47.80;99557.09;8218384;28;20043;-74
2022/05/19 09:49:27;;;;;;;1999.90;999.90;;;;;;;27.34;47.42;99581.31;8220216;28;20047;-74
2022/05/19 09:53:37;;;;;;;1999.90;999.90;;;;;;;27.76;46.29;99560.56;8220121;28;20089;-73
2022/05/19 09:57:51;;;;;;;1999.90;999.90;;;;;;;27.96;43.82;99576.84;8222248;28;20042;-74
2022/05/19 10:02:05;;;;;;;1999.90;999.90;;;;;;;28.08;44.53;99587.59;8216695;28;20050;-74
2022/05/19 10:06:14;;;;;;;1999.90;999.90;;;;;;;27.79;43.74;99587.88;8218324;28;20042;-74
2022/05/19 10:10:25;;;;;;;1999.90;999.90;;;;;;;27.63;46.51;99592.59;8218420;28;20042;-74
2022/05/19 10:14:30;;;;;;;1999.90;999.90;;;;;;;27.83;45.82;99577.81;8225105;28;20046;-74
2022/05/19 10:19:08;;;;;;;1999.90;999.90;;;;;;;28.11;45.25;99587.34;8221441;28;20050;-74
2022/05/19 10:23:24;;;;;;;1999.90;999.90;;;;;;;28.12;44.63;99584.56;8225264;28;20042;-74
2022/05/19 10:32:35;;;;;;;1999.90;999.90;;;;;;;28.19;45.26;99572.50;8204953;28;20390;-74
2022/05/19 10:36:55;;;;;;;1999.90;999.90;;;;;;;28.56;44.94;99561.75;8238763;28;20065;-74
2022/05/19 10:41:09;;;;;;;1999.90;999.90;;;;;;;28.77;44.52;99562.78;8233283;28;20097;-74
2022/05/19 10:45:15;;;;;;;1999.90;999.90;;;;;;;28.73;43.62;99563.13;8229842;28;20066;-74
2022/05/19 10:49:26;;;;;;;1999.90;999.90;;;;;;;28.97;43.94;99560.41;8215675;28;20069;-73
2022/05/19 10:53:33;;;;;;;1999.90;999.90;;;;;;;29.36;43.98;99554.59;8233192;28;20405;-74
2022/05/19 10:57:47;;;;;;;1999.90;999.90;;;;;;;29.47;42.24;99556.47;8238570;28;20319;-74
2022/05/19 11:01:59;;;;;;;1999.90;999.90;;;;;;;29.42;42.77;99546.06;8235900;28;20093;-74
2022/05/19 11:06:31;;;;;;;1999.90;999.90;;;;;;;29.22;44.01;99543.28;8234711;28;20102;-74
2022/05/19 11:10:38;;;;;;;1999.90;999.90;;;;;;;29.51;44.43;99549.03;8238454;28;20053;-74
2022/05/19 11:14:56;;;;;;;1999.90;999.90;;;;;;;30.01;43.07;99550.28;8233541;28;20054;-74
2022/05/19 11:19:05;;;;;;;1999.90;999.90;;;;;;;30.35;41.86;99548.38;8206461;28;20135;-73
2022/05/19 11:23:24;;;;;;;1999.90;999.90;;;;;;;30.24;43.03;99538.53;8223797;28;20093;-73
2022/05/19 11:27:30;;;;;;;1999.90;999.90;;;;;;;30.27;42.90;99532.06;8229350;28;20466;-73
2022/05/19 11:32:13;;;;;;;1999.90;999.90;;;;;;;30.28;43.13;99536.44;8226851;28;20142;-73
2022/05/19 11:36:41;;;;;;;1999.90;999.90;;;;;;;30.15;42.31;99533.94;8189216;28;20138;-74
2022/05/19 11:40:50;;;;;;;1999.90;999.90;;;;;;;30.11;42.48;99532.50;8219608;28;20058;-73
2022/05/19 11:44:52;;;;;;;1999.90;999.90;;;;;;;30.23;43.88;99530.63;8222957;28;20077;-74
2022/05/19 11:58:20;;;;;;;1999.90;999.90;;;;;;;30.20;42.75;99544.28;8225967;28;20078;-73
2022/05/19 12:02:33;;;;;;;1999.90;999.90;;;;;;;30.33;42.86;99536.91;8220922;28;20053;-73
2022/05/19 12:06:52;;;;;;;1999.90;999.90;;;;;;;30.59;43.10;99540.94;8223747;28;20046;-73
2022/05/19 12:11:09;;;;;;;1999.90;999.90;;;;;;;30.81;41.95;99547.16;8228553;28;20082;-74
2022/05/19 12:15:13;;;;;;;1999.90;999.90;;;;;;;30.97;41.17;99531.44;8218894;28;20602;-74
2022/05/19 12:19:35;;;;;;;1999.90;999.90;;;;;;;31.47;42.00;99524.38;8242489;28;20089;-74
2022/05/19 12:23:41;;;;;;;1999.90;999.90;;;;;;;31.32;39.58;99516.81;8236048;28;20046;-73
2022/05/19 12:28:25;;;;;;;1999.90;999.90;;;;;;;30.86;41.02;99523.47;8233239;28;20086;-73
2022/05/19 12:32:35;;;;;;;1999.90;999.90;;;;;;;30.42;42.09;99516.53;8200875;28;20108;-73
2022/05/19 12:36:51;;;;;;;1999.90;999.90;;;;;;;30.27;42.47;99519.53;8217697;28;20062;-73
2022/05/19 12:40:56;;;;;;;1999.90;999.90;;;;;;;30.13;43.56;99517.13;8225644;28;20145;-74
2022/05/19 12:44:58;;;;;;;1999.90;999.90;;;;;;;30.22;42.99;99516.38;8233787;28;20058;-74
2022/05/19 12:49:25;;;;;;;1999.90;999.90;;;;;;;30.70;43.04;99498.97;8211406;28;20148;-74
2022/05/19 12:53:27;;;;;;;1999.90;999.90;;;;;;;30.96;42.10;99498.41;8223190;28;20073;-73
2022/05/19 12:57:28;;;;;;;1999.90;999.90;;;;;;;31.03;41.95;99493.34;8230550;28;20118;-74
2022/05/19 13:01:52;;;;;;;1999.90;999.90;;;;;;;31.04;43.03;99481.63;8229065;28;20046;-74
2022/05/19 13:05:57;;;;;;;1999.90;999.90;;;;;;;31.25;42.28;99476.28;8224337;28;20133;-73
2022/05/19 13:10:20;;;;;;;1999.90;999.90;;;;;;;31.63;42.18;99477.34;8240287;28;20065;-74
2022/05/19 13:14:34;;;;;;;1999.90;999.90;;;;;;;31.71;40.61;99474.81;8232945;28;20053;-74
2022/05/19 13:18:39;;;;;;;1999.90;999.90;;;;;;;31.60;40.56;99475.81;8223340;28;20057;-74
2022/05/19 13:22:52;;;;;;;1999.90;999.90;;;;;;;31.71;40.77;99453.31;8238426;28;20501;-74
2022/05/19 13:31:25;;;;;;;1999.90;999.90;;;;;;;31.29;39.94;99460.75;8229093;28;20141;-74
2022/05/19 13:35:27;;;;;;;1999.90;999.90;;;;;;;31.43;40.90;99450.47;8234810;28;20038;-73
2022/05/19 13:39:29;;;;;;;1999.90;999.90;;;;;;;31.68;39.60;99458.97;8207627;28;20070;-73
2022/05/19 13:43:35;;;;;;;1999.90;999.90;;;;;;;31.83;40.27;99449.56;8216842;28;20771;-73
2022/05/19 13:47:37;;;;;;;1999.90;999.90;;;;;;;31.86;38.69;99463.56;8207044;28;20420;-74
2022/05/19 13:51:41;;;;;;;1999.90;999.90;;;;;;;31.44;40.17;99460.22;8208869;28;20530;-73
2022/05/19 13:55:43;;;;;;;1999.90;999.90;;;;;;;31.17;40.67;99447.41;8240223;28;20050;-74
2022/05/19 13:59:46;;;;;;;1999.90;999.90;;;;;;;30.79;41.11;99456.13;8225096;28;20109;-74
2022/05/19 14:03:49;;;;;;;1999.90;999.90;;;;;;;30.41;42.30;99442.47;8223832;28;20157;-74
2022/05/19 14:07:54;;;;;;;1999.90;999.90;;;;;;;30.00;43.52;99447.66;8241199;28;20050;-74
2022/05/19 14:12:25;;;;;;;1999.90;999.90;;;;;;;29.66;44.20;99438.91;8223257;28;20050;-75
2022/05/19 14:21:38;;;;;;;1999.90;999.90;;;;;;;28.85;45.65;99474.81;8224164;28;20050;-73
2022/05/19 14:25:49;;;;;;;1999.90;999.90;;;;;;;28.52;45.95;99467.59;8242028;28;20461;-73
2022/05/19 14:30:19;;;;;;;1999.90;999.90;;;;;;;28.13;47.39;99483.94;8241630;28;20402;-73
2022/05/19 14:34:38;;;;;;;1999.90;999.90;;;;;;;27.51;53.77;99486.78;8236638;28;20358;-73
2022/05/19 14:43:49;;;;;;;1999.90;999.90;;;;;;;26.38;60.53;99494.69;8225781;28;20401;-72
2022/05/19 14:48:20;;;;;;;1999.90;999.90;;;;;;;26.04;61.88;99491.63;8209244;28;20456;-72
2022/05/19 15:19:14;;;;;;;1999.90;999.90;;;;;;;25.94;66.97;99484.34;8235980;28;20054;-72
2022/05/19 15:23:36;;;;;;;1999.90;999.90;;;;;;;25.99;67.27;99480.41;8173418;29;20060;-72
2022/05/19 15:27:41;;;;;;;1999.90;999.90;;;;;;;25.94;67.24;99479.00;8168000;29;20601;-72
2022/05/19 15:31:44;;;;;;;1999.90;999.90;;;;;;;25.97;67.05;99478.81;8150116;29;20062;-72
2022/05/19 15:35:46;;;;;;;1999.90;999.90;;;;;;;26.50;66.87;99464.56;8148885;28;20166;-72
2022/05/19 15:39:48;;;;;;;1999.90;999.90;;;;;;;27.27;65.16;99462.72;8159627;29;20631;-73
2022/05/19 15:43:50;;;;;;;1999.90;999.90;;;;;;;27.99;61.74;99453.78;8149228;29;20112;-73
2022/05/19 15:47:53;;;;;;;;;;;;;;;28.20;58.53;99450.50;8150875;29;20137;-73
2022/05/19 15:51:55;;;;;;;1999.90;999.90;;;;;;;28.22;55.77;99454.75;8179552;28;19939;-73
2022/05/19 15:55:57;;;;;;;1999.90;999.90;;;;;;;28.34;55.26;99457.47;8220975;28;20047;-73
2022/05/19 15:59:58;;;;;;;1999.90;999.90;;;;;;;28.41;55.26;99458.72;8230444;28;20042;-75
2022/05/19 16:04:00;;;;;;;;;;;;;;;28.51;54.06;99462.34;8231696;28;20069;-74
2022/05/19 16:08:02;;;;;;;1999.90;999.90;;;;;;;28.80;52.92;99468.13;8210672;28;19972;-75
2022/05/19 16:12:11;;;;;;;1999.90;999.90;;;;;;;29.04;50.99;99468.03;8218369;28;20085;-74
2022/05/19 16:16:13;;;;;;;1999.90;999.90;;;;;;;29.23;49.31;99478.09;8212955;28;20053;-74
2022/05/19 16:20:17;;;;;;;1999.90;999.90;;;;;;;29.46;49.30;99480.69;8219020;28;20053;-75
2022/05/19 16:24:18;;;;;;;1999.90;999.90;;;;;;;29.44;48.19;99489.75;8230132;28;20415;-74
2022/05/19 16:28:20;;;;;;;1999.90;999.90;;;;;;;29.24;48.09;99493.19;8227661;28;20074;-74
2022/05/19 16:32:22;;;;;;;1999.90;999.90;;;;;;;28.75;49.06;99491.69;8234082;28;20078;-74
2022/05/19 16:36:24;;;;;;;1999.90;999.90;;;;;;;28.46;49.61;99486.78;8238595;28;20113;-74
2022/05/19 16:40:27;;;;;;;1999.90;999.90;;;;;;;28.23;49.48;99493.84;8228149;28;20478;-74
2022/05/19 16:44:29;;;;;;;1999.90;999.90;;;;;;;27.97;50.38;99484.25;8218671;28;20078;-75
2022/05/19 16:48:34;;;;;;;1999.90;999.90;;;;;;;27.75;50.69;99490.34;8222243;28;20505;-74
2022/05/19 16:52:36;;;;;;;1999.90;999.90;;;;;;;27.57;50.60;99488.97;8210170;28;20042;-74
2022/05/19 17:01:01;;;;;;;1999.90;999.90;;;;;;;27.35;50.87;99495.03;8216472;28;20064;-73
2022/05/19 17:05:04;;;;;;;1999.90;999.90;;;;;;;27.25;51.65;99493.97;8225638;28;20117;-74
2022/05/19 17:09:07;;;;;;;1999.90;999.90;;;;;;;27.17;51.27;99491.84;8216868;28;20660;-74
2022/05/19 17:13:13;;;;;;;1999.90;999.90;;;;;;;27.13;52.05;99477.06;8220508;28;20051;-73
2022/05/19 17:17:14;;;;;;;1999.90;999.90;;;;;;;27.09;52.40;99471.06;8215477;28;20055;-73
2022/05/19 17:21:19;;;;;;;;;;;;;;;27.04;52.28;99469.69;8219303;28;20077;-73
2022/05/19 17:25:23;;;;;;;1999.90;999.90;;;;;;;26.93;52.04;99475.75;8207755;28;19937;-73
2022/05/19 17:29:24;;;;;;;1999.90;999.90;;;;;;;26.92;52.24;99486.50;8221937;28;20387;-73
2022/05/19 17:33:26;;;;;;;;;;;;;;;26.86;51.75;99485.13;8201317;28;20146;-73
2022/05/19 17:37:27;;;;;;;1999.90;999.90;;;;;;;26.82;52.11;99488.97;8223790;28;20267;-74
2022/05/19 17:41:29;;;;;;;1999.90;999.90;;;;;;;26.77;52.65;99477.81;8220685;28;20094;-73
2022/05/19 17:45:32;;;;;;;1999.90;999.90;;;;;;;26.64;53.39;99482.25;8207927;28;20733;-73
2022/05/19 17:49:33;;;;;;;1999.90;999.90;;;;;;;26.56;54.81;99476.59;8220122;28;20329;-74
2022/05/19 17:53:35;;;;;;;1999.90;999.90;;;;;;;26.45;55.20;99472.88;8222305;28;20050;-74
2022/05/19 17:57:37;;;;;;;1999.90;999.90;;;;;;;26.30;57.67;99491.66;8200867;28;20042;-74
2022/05/19 18:01:38;;;;;;;1999.90;999.90;;;;;;;26.19;56.69;99500.34;8227535;28;20046;-73
2022/05/19 18:05:40;;;;;;;;;;;;;;;26.11;56.87;99510.69;8210584;28;20047;-74
2022/05/19 18:09:41;;;;;;;1999.90;999.90;;;;;;;26.18;56.70;99527.94;8202835;28;19972;-74
2022/05/19 18:13:43;;;;;;;1999.90;999.90;;;;;;;26.28;55.93;99530.84;8220400;28;20069;-74
2022/05/19 18:22:05;;;;;;;1999.90;999.90;;;;;;;26.38;56.67;99551.44;8219605;28;20051;-74
2022/05/19 18:26:10;;;;;;;1999.90;999.90;;;;;;;26.39;55.31;99560.28;8206806;28;20039;-74
2022/05/19 18:30:13;;;;;;;1999.90;999.90;;;;;;;26.34;55.52;99563.25;8203859;28;20053;-74
2022/05/19 18:34:14;;;;;;;1999.90;999.90;;;;;;;26.29;56.10;99561.84;8221916;28;20186;-74
2022/05/19 18:38:16;;;;;;;1999.90;999.90;;;;;;;26.15;55.92;99574.25;8211507;28;20042;-74
2022/05/19 18:46:38;;;;;;;1999.90;999.90;;;;;;;25.84;56.49;99586.03;8219148;28;20133;-74
2022/05/19 18:50:40;;;;;;;1999.90;999.90;;;;;;;25.61;57.28;99589.28;8225396;28;20051;-74
2022/05/19 18:54:42;;;;;;;1999.90;999.90;;;;;;;25.44;57.81;99586.81;8230584;28;20561;-73
2022/05/19 18:58:45;;;;;;;1999.90;999.90;;;;;;;25.27;58.83;99590.50;8201373;28;20051;-73
2022/05/19 19:02:47;;;;;;;1999.90;999.90;;;;;;;25.11;60.30;99606.53;8216476;28;20054;-73
2022/05/19 19:06:49;;;;;;;1999.90;999.90;;;;;;;24.92;61.09;99617.38;8202453;28;20137;-73
2022/05/19 19:10:50;;;;;;;1999.90;999.90;;;;;;;24.82;60.73;99624.22;8226797;28;20072;-73
2022/05/19 19:14:52;;;;;;;1999.90;999.90;;;;;;;24.63;60.81;99629.75;8216524;28;20043;-73
2022/05/19 19:18:54;;;;;;;1999.90;999.90;;;;;;;24.40;62.01;99639.03;8232389;28;20141;-73
2022/05/19 19:22:55;;;;;;;1999.90;999.90;;;;;;;24.21;62.26;99643.63;8234221;28;20134;-73
2022/05/19 19:26:57;;;;;;;1999.90;999.90;;;;;;;24.02;62.42;99661.53;8233373;28;20046;-73
2022/05/19 19:30:59;;;;;;;1999.90;999.90;;;;;;;23.87;62.10;99673.81;8222019;28;20149;-71
2022/05/19 19:35:01;;;;;;;1999.90;999.90;;;;;;;23.73;62.92;99671.09;8228162;28;20066;-71